Time;durP1;ratioP1;P1;durP2;ratioP2;P2;SDS_P1;SDS_P2;PMS_P1;PMS_P2;Temp;Humidity;BMP_temperature;BMP_pressure;BME280_temperature;BME280_humidity;BME280_pressure;Samples;Min_cycle;Max_cycle;Signal;HPM_P1;HPM_P2
2022/06/04 00:02:29;;;;;;;7.18;6.38;;;;;;;;;;5095488;28;20020;-63
2022/06/04 00:05:16;;;;;;;8.80;6.93;;;;;;;;;;5099830;28;20030;-63
2022/06/04 00:08:02;;;;;;;8.82;7.20;;;;;;;;;;5105402;28;20042;-71
2022/06/04 00:16:58;;;;;;;9.63;7.15;;;;;;;;;;5108152;28;20028;-66
2022/06/04 00:19:44;;;;;;;9.75;6.60;;;;;;;;;;5104286;27;20040;-64
2022/06/04 00:22:30;;;;;;;9.30;6.65;;;;;;;;;;5097153;28;20016;-64
2022/06/04 00:25:15;;;;;;;8.38;7.03;;;;;;;;;;5085547;28;20110;-66
2022/06/04 00:28:03;;;;;;;11.38;7.20;;;;;;;;;;5098128;28;20797;-66
2022/06/04 00:30:49;;;;;;;9.27;7.15;;;;;;;;;;5112632;28;20027;-62
2022/06/04 00:33:34;;;;;;;10.10;7.53;;;;;;;;;;5096204;28;20024;-63
2022/06/04 00:36:20;;;;;;;8.85;7.57;;;;;;;;;;5101668;28;20023;-63
2022/06/04 00:39:06;;;;;;;8.80;6.93;;;;;;;;;;5107747;28;20081;-63
2022/06/04 00:42:00;;;;;;;10.90;8.02;;;;;;;;;;5096317;28;20032;-63
2022/06/04 00:44:48;;;;;;;7.50;6.53;;;;;;;;;;5112366;28;20020;-68
2022/06/04 00:47:36;;;;;;;9.68;8.13;;;;;;;;;;5107627;28;20019;-68
2022/06/04 00:50:22;;;;;;;8.60;6.30;;;;;;;;;;5111964;28;20631;-70
2022/06/04 00:53:09;;;;;;;12.02;7.55;;;;;;;;;;5093295;28;20026;-69
2022/06/04 00:56:04;;;;;;;10.93;8.32;;;;;;;;;;5096571;28;20382;-70
2022/06/04 00:58:50;;;;;;;9.57;7.18;;;;;;;;;;5109702;28;20500;-69
2022/06/04 01:01:41;;;;;;;10.40;7.90;;;;;;;;;;5094387;28;20031;-69
2022/06/04 01:07:37;;;;;;;9.18;7.15;;;;;;;;;;5110434;28;20062;-70
2022/06/04 01:10:25;;;;;;;7.93;6.75;;;;;;;;;;5112884;28;20436;-70
2022/06/04 01:13:20;;;;;;;9.18;6.85;;;;;;;;;;5110304;28;20393;-69
2022/06/04 01:16:06;;;;;;;9.77;7.35;;;;;;;;;;5113363;28;20371;-69
2022/06/04 01:18:58;;;;;;;8.82;6.97;;;;;;;;;;5107783;28;20047;-69
2022/06/04 01:22:03;;;;;;;9.95;7.80;;;;;;;;;;5109576;28;20047;-75
2022/06/04 01:25:06;;;;;;;9.77;7.05;;;;;;;;;;5108560;28;20020;-69
2022/06/04 01:28:12;;;;;;;8.35;7.00;;;;;;;;;;5096994;28;20031;-68
2022/06/04 01:31:00;;;;;;;8.90;7.55;;;;;;;;;;5086779;28;20020;-69
2022/06/04 01:33:49;;;;;;;9.60;7.30;;;;;;;;;;5103642;28;20035;-68
2022/06/04 01:36:35;;;;;;;10.07;7.10;;;;;;;;;;5100764;28;20049;-68
2022/06/04 01:39:22;;;;;;;8.77;7.20;;;;;;;;;;5101061;28;20033;-69
2022/06/04 01:42:08;;;;;;;10.18;6.72;;;;;;;;;;5104707;28;20015;-64
2022/06/04 01:44:55;;;;;;;7.50;6.68;;;;;;;;;;5111134;28;20027;-68
2022/06/04 01:47:42;;;;;;;11.38;7.38;;;;;;;;;;5102162;28;20557;-67
2022/06/04 01:50:29;;;;;;;10.43;7.82;;;;;;;;;;5100262;27;20043;-67
2022/06/04 01:53:16;;;;;;;9.43;7.28;;;;;;;;;;5116853;28;20389;-67
2022/06/04 01:56:05;;;;;;;10.23;6.72;;;;;;;;;;5111342;28;20114;-67
2022/06/04 01:58:53;;;;;;;9.57;7.73;;;;;;;;;;5106627;28;20382;-62
2022/06/04 02:01:40;;;;;;;9.85;7.80;;;;;;;;;;5098953;28;20036;-63
2022/06/04 02:04:27;;;;;;;9.40;7.75;;;;;;;;;;5100692;28;20030;-63
2022/06/04 02:07:31;;;;;;;10.40;7.78;;;;;;;;;;5108967;28;20474;-63
2022/06/04 02:10:20;;;;;;;9.32;7.40;;;;;;;;;;5109096;28;20173;-62
2022/06/04 02:13:08;;;;;;;9.73;7.30;;;;;;;;;;5104821;28;20095;-63
2022/06/04 02:15:57;;;;;;;9.52;6.93;;;;;;;;;;5107431;28;20020;-62
2022/06/04 02:18:43;;;;;;;10.73;7.80;;;;;;;;;;5092183;28;20030;-62
2022/06/04 02:21:29;;;;;;;8.45;7.07;;;;;;;;;;5102557;28;20118;-68
2022/06/04 02:24:15;;;;;;;8.10;6.82;;;;;;;;;;5117244;28;20038;-68
2022/06/04 02:27:01;;;;;;;10.35;7.25;;;;;;;;;;5105645;28;20031;-69
2022/06/04 02:29:46;;;;;;;9.43;7.38;;;;;;;;;;5106162;28;20043;-68
2022/06/04 02:32:38;;;;;;;10.77;7.85;;;;;;;;;;5109408;28;20073;-68
2022/06/04 02:35:32;;;;;;;9.45;7.05;;;;;;;;;;5104141;28;20020;-72
2022/06/04 02:38:26;;;;;;;9.20;7.00;;;;;;;;;;5105987;28;20050;-68
2022/06/04 02:41:15;;;;;;;8.45;6.95;;;;;;;;;;5100589;28;20462;-68
2022/06/04 02:44:11;;;;;;;9.55;6.95;;;;;;;;;;5111490;28;20054;-68
2022/06/04 02:46:57;;;;;;;8.82;7.70;;;;;;;;;;5088531;28;20043;-68
2022/06/04 02:49:42;;;;;;;9.10;7.43;;;;;;;;;;5097698;28;20047;-68
2022/06/04 02:52:30;;;;;;;10.15;7.78;;;;;;;;;;5097914;28;20479;-68
2022/06/04 02:55:18;;;;;;;11.43;8.13;;;;;;;;;;5101260;28;20131;-73
2022/06/04 02:58:09;;;;;;;9.18;6.88;;;;;;;;;;5099274;28;20080;-68
2022/06/04 03:00:56;;;;;;;9.57;7.40;;;;;;;;;;5109491;27;20059;-69
2022/06/04 03:03:42;;;;;;;9.07;7.25;;;;;;;;;;5102775;28;20062;-68
2022/06/04 03:06:32;;;;;;;9.02;7.10;;;;;;;;;;5106038;28;20505;-68
2022/06/04 03:09:17;;;;;;;;;;;;;;;;;;5096759;28;20042;-68
2022/06/04 03:12:04;;;;;;;10.32;7.18;;;;;;;;;;5096196;28;19994;-70
2022/06/04 03:14:49;;;;;;;8.77;7.00;;;;;;;;;;5099167;28;20042;-68
2022/06/04 03:17:35;;;;;;;9.70;7.38;;;;;;;;;;5104967;28;20482;-69
2022/06/04 03:20:22;;;;;;;9.55;7.82;;;;;;;;;;5102001;28;20123;-68
2022/06/04 03:23:08;;;;;;;9.75;7.47;;;;;;;;;;5103938;28;20073;-70
2022/06/04 03:25:54;;;;;;;8.50;6.82;;;;;;;;;;5110694;28;20032;-69
2022/06/04 03:28:39;;;;;;;9.63;7.70;;;;;;;;;;5104741;28;20019;-68
2022/06/04 03:31:26;;;;;;;11.13;6.90;;;;;;;;;;5108454;28;20027;-64
2022/06/04 03:34:12;;;;;;;11.57;7.10;;;;;;;;;;5103102;28;20023;-69
2022/06/04 03:36:57;;;;;;;10.00;7.28;;;;;;;;;;5107585;28;20092;-67
2022/06/04 03:39:43;;;;;;;11.32;6.53;;;;;;;;;;5106165;28;20363;-70
2022/06/04 03:42:28;;;;;;;10.68;6.68;;;;;;;;;;5108807;28;20474;-69
2022/06/04 03:45:14;;;;;;;12.00;7.25;;;;;;;;;;5107902;28;20027;-68
2022/06/04 03:48:00;;;;;;;8.20;6.85;;;;;;;;;;5099498;28;20036;-69
2022/06/04 03:50:46;;;;;;;9.57;6.75;;;;;;;;;;5100575;28;20055;-69
2022/06/04 03:53:31;;;;;;;9.95;6.75;;;;;;;;;;5102891;28;20456;-65
2022/06/04 03:56:17;;;;;;;9.10;6.72;;;;;;;;;;5099206;28;20023;-62
2022/06/04 03:59:03;;;;;;;8.93;7.32;;;;;;;;;;5095784;28;20020;-63
2022/06/04 04:01:53;;;;;;;8.93;6.60;;;;;;;;;;5112266;28;20116;-63
2022/06/04 04:04:38;;;;;;;8.18;7.05;;;;;;;;;;5086281;28;20019;-62
2022/06/04 04:07:24;;;;;;;10.65;6.82;;;;;;;;;;5106005;28;20077;-67
2022/06/04 04:10:10;;;;;;;9.70;6.88;;;;;;;;;;5102705;28;20019;-69
2022/06/04 04:12:56;;;;;;;9.35;6.82;;;;;;;;;;5099270;28;20016;-69
2022/06/04 04:15:42;;;;;;;9.55;7.03;;;;;;;;;;5093422;28;20020;-69
2022/06/04 04:18:28;;;;;;;9.23;6.97;;;;;;;;;;5098146;28;20034;-69
2022/06/04 04:21:15;;;;;;;10.43;6.78;;;;;;;;;;5107977;28;20085;-69
2022/06/04 04:24:01;;;;;;;8.80;6.15;;;;;;;;;;5106968;28;20018;-68
2022/06/04 04:26:46;;;;;;;8.18;6.68;;;;;;;;;;5096255;28;20449;-64
2022/06/04 04:29:32;;;;;;;10.70;7.10;;;;;;;;;;5097632;28;20102;-69
2022/06/04 04:32:17;;;;;;;7.93;6.55;;;;;;;;;;5103343;28;20087;-69
2022/06/04 04:35:04;;;;;;;8.98;6.32;;;;;;;;;;5096865;28;20012;-68
2022/06/04 04:37:50;;;;;;;8.13;6.25;;;;;;;;;;5098125;28;20497;-69
2022/06/04 04:40:36;;;;;;;8.52;6.30;;;;;;;;;;5100438;28;20097;-69
2022/06/04 04:43:22;;;;;;;7.45;6.22;;;;;;;;;;5083725;28;21381;-67
2022/06/04 04:46:09;;;;;;;7.95;6.22;;;;;;;;;;5103270;28;20107;-67
2022/06/04 04:48:54;;;;;;;8.80;6.07;;;;;;;;;;5092052;28;20091;-69
2022/06/04 04:51:40;;;;;;;7.70;6.07;;;;;;;;;;5103700;28;20019;-69
2022/06/04 04:54:26;;;;;;;7.95;5.80;;;;;;;;;;5110437;28;20479;-70
2022/06/04 04:57:12;;;;;;;7.38;6.25;;;;;;;;;;5096394;28;20038;-68
2022/06/04 04:59:57;;;;;;;9.20;7.00;;;;;;;;;;5100962;28;20096;-69
2022/06/04 05:02:43;;;;;;;8.55;6.47;;;;;;;;;;5106721;28;20111;-67
2022/06/04 05:05:29;;;;;;;7.53;5.88;;;;;;;;;;5118814;28;20186;-63
2022/06/04 05:08:14;;;;;;;10.88;6.28;;;;;;;;;;5102204;28;20382;-63
2022/06/04 05:11:10;;;;;;;7.82;6.28;;;;;;;;;;5108099;28;20026;-63
2022/06/04 05:13:57;;;;;;;8.70;6.78;;;;;;;;;;5099970;27;20059;-63
2022/06/04 05:16:42;;;;;;;9.07;5.97;;;;;;;;;;5111270;28;20030;-63
2022/06/04 05:19:28;;;;;;;9.13;6.85;;;;;;;;;;5101432;28;20084;-63
2022/06/04 05:22:14;;;;;;;10.48;6.85;;;;;;;;;;5103763;28;20034;-69
2022/06/04 05:25:00;;;;;;;6.65;5.72;;;;;;;;;;5102896;28;20088;-63
2022/06/04 05:27:45;;;;;;;9.25;6.47;;;;;;;;;;5109348;28;20502;-62
2022/06/04 05:30:31;;;;;;;7.90;5.95;;;;;;;;;;5106355;28;20035;-62
2022/06/04 05:33:16;;;;;;;7.55;6.15;;;;;;;;;;5104264;28;20015;-62
2022/06/04 05:36:02;;;;;;;7.72;6.30;;;;;;;;;;5106834;28;20024;-64
2022/06/04 05:38:48;;;;;;;8.73;6.32;;;;;;;;;;5107260;27;20028;-61
2022/06/04 05:41:34;;;;;;;7.70;5.82;;;;;;;;;;5093238;28;20032;-68
2022/06/04 05:44:19;;;;;;;6.55;5.85;;;;;;;;;;5096711;28;20027;-74
2022/06/04 05:47:05;;;;;;;11.45;6.00;;;;;;;;;;5095936;28;20028;-74
2022/06/04 05:49:50;;;;;;;6.65;5.50;;;;;;;;;;5100442;28;20040;-74
2022/06/04 05:52:36;;;;;;;7.25;5.82;;;;;;;;;;5093533;28;20117;-73
2022/06/04 05:55:22;;;;;;;6.82;5.35;;;;;;;;;;5102697;28;20027;-74
2022/06/04 05:58:07;;;;;;;6.20;5.35;;;;;;;;;;5093360;28;20457;-73
2022/06/04 06:01:00;;;;;;;7.68;6.40;;;;;;;;;;5096883;28;20036;-73
2022/06/04 06:03:46;;;;;;;5.68;5.07;;;;;;;;;;5100272;28;20024;-73
2022/06/04 06:06:32;;;;;;;8.73;5.20;;;;;;;;;;5108591;27;20394;-74
2022/06/04 06:09:19;;;;;;;7.47;5.50;;;;;;;;;;5113318;28;20104;-74
2022/06/04 06:12:05;;;;;;;6.07;4.65;;;;;;;;;;5110931;28;20023;-73
2022/06/04 06:14:50;;;;;;;10.02;5.32;;;;;;;;;;5106636;28;20030;-73
2022/06/04 06:17:36;;;;;;;7.18;5.25;;;;;;;;;;5098238;28;20077;-66
2022/06/04 06:20:22;;;;;;;7.65;5.05;;;;;;;;;;5103983;28;20031;-64
2022/06/04 06:23:09;;;;;;;8.82;5.50;;;;;;;;;;5107599;28;20081;-63
2022/06/04 06:25:55;;;;;;;8.18;5.28;;;;;;;;;;5107584;28;20027;-63
2022/06/04 06:28:41;;;;;;;7.45;5.40;;;;;;;;;;5106276;28;20028;-62
2022/06/04 06:31:28;;;;;;;11.63;6.28;;;;;;;;;;5099286;28;20023;-63
2022/06/04 06:34:13;;;;;;;8.40;5.60;;;;;;;;;;5111847;28;20023;-68
2022/06/04 06:36:59;;;;;;;9.68;5.63;;;;;;;;;;5089131;28;20020;-74
2022/06/04 06:39:44;;;;;;;9.45;6.22;;;;;;;;;;5108110;28;20220;-70
2022/06/04 06:42:30;;;;;;;7.97;6.03;;;;;;;;;;5109067;28;20028;-71
2022/06/04 06:45:16;;;;;;;9.50;5.78;;;;;;;;;;5100893;28;20033;-70
2022/06/04 06:48:01;;;;;;;11.93;6.50;;;;;;;;;;5106419;28;20059;-72
2022/06/04 06:50:47;;;;;;;7.80;6.38;;;;;;;;;;5111683;28;20011;-71
2022/06/04 06:53:33;;;;;;;11.07;6.70;;;;;;;;;;5106857;28;20055;-61
2022/06/04 06:56:21;;;;;;;14.10;7.05;;;;;;;;;;5100961;28;20019;-66
2022/06/04 06:59:06;;;;;;;9.57;6.43;;;;;;;;;;5108696;28;20494;-67
2022/06/04 07:01:52;;;;;;;10.52;7.20;;;;;;;;;;5104698;28;20062;-68
2022/06/04 07:04:37;;;;;;;10.65;6.65;;;;;;;;;;5084016;28;20565;-67
2022/06/04 07:07:23;;;;;;;10.75;6.95;;;;;;;;;;5101811;28;20027;-68
2022/06/04 07:10:10;;;;;;;12.45;6.90;;;;;;;;;;5101468;28;20024;-68
2022/06/04 07:12:55;;;;;;;13.80;8.02;;;;;;;;;;5103763;28;20044;-69
2022/06/04 07:15:43;;;;;;;10.68;6.68;;;;;;;;;;5104179;28;20388;-63
2022/06/04 07:18:29;;;;;;;12.23;6.75;;;;;;;;;;5112046;27;20389;-63
2022/06/04 07:21:15;;;;;;;11.52;6.70;;;;;;;;;;5107049;27;20033;-62
2022/06/04 07:24:01;;;;;;;11.50;6.45;;;;;;;;;;5098888;28;20022;-63
2022/06/04 07:26:47;;;;;;;9.82;6.97;;;;;;;;;;5097188;28;20110;-64
2022/06/04 07:29:33;;;;;;;11.57;7.00;;;;;;;;;;5098784;28;20024;-64
2022/06/04 07:32:19;;;;;;;9.05;6.68;;;;;;;;;;5094278;28;20494;-71
2022/06/04 07:35:04;;;;;;;10.68;6.90;;;;;;;;;;5092677;28;20024;-65
2022/06/04 07:37:50;;;;;;;9.85;6.78;;;;;;;;;;5096090;27;20028;-65
2022/06/04 07:40:37;;;;;;;11.77;6.53;;;;;;;;;;5101376;27;20119;-66
2022/06/04 07:43:23;;;;;;;12.77;7.55;;;;;;;;;;5096209;27;20036;-65
2022/06/04 07:46:08;;;;;;;8.50;6.50;;;;;;;;;;5108237;28;20031;-64
2022/06/04 07:48:55;;;;;;;8.70;6.60;;;;;;;;;;5092884;27;20135;-72
2022/06/04 07:51:41;;;;;;;12.38;6.65;;;;;;;;;;5094169;28;20020;-70
2022/06/04 07:54:27;;;;;;;12.68;6.93;;;;;;;;;;5082744;28;20024;-69
2022/06/04 07:57:13;;;;;;;9.27;6.60;;;;;;;;;;5096530;28;20363;-71
2022/06/04 07:59:59;;;;;;;11.60;7.38;;;;;;;;;;5086063;28;20668;-69
2022/06/04 08:02:45;;;;;;;11.73;7.93;;;;;;;;;;5099493;28;20035;-71
2022/06/04 08:05:31;;;;;;;16.35;7.82;;;;;;;;;;5098664;28;20020;-69
2022/06/04 08:08:17;;;;;;;11.82;8.52;;;;;;;;;;5097528;28;20028;-57
2022/06/04 08:11:30;;;;;;;10.73;7.40;;;;;;;;;;5104051;28;20047;-66
2022/06/04 08:14:17;;;;;;;13.15;8.30;;;;;;;;;;5099737;28;20026;-66
2022/06/04 08:17:03;;;;;;;12.93;8.15;;;;;;;;;;5118652;28;20023;-68
2022/06/04 08:19:49;;;;;;;12.50;7.70;;;;;;;;;;5093258;28;20107;-65
2022/06/04 08:22:34;;;;;;;14.15;8.00;;;;;;;;;;5107914;28;20065;-64
2022/06/04 08:25:20;;;;;;;13.80;8.85;;;;;;;;;;5108998;28;20069;-65
2022/06/04 08:28:06;;;;;;;12.20;7.35;;;;;;;;;;5095564;28;20530;-60
2022/06/04 08:31:05;;;;;;;13.38;7.40;;;;;;;;;;5096885;28;20028;-61
2022/06/04 08:33:51;;;;;;;11.73;7.05;;;;;;;;;;5098150;28;20115;-60
2022/06/04 08:36:37;;;;;;;12.30;7.55;;;;;;;;;;5093724;28;20016;-59
2022/06/04 08:39:23;;;;;;;12.00;7.22;;;;;;;;;;5105387;28;20039;-61
2022/06/04 08:42:08;;;;;;;10.95;7.15;;;;;;;;;;5116279;27;20036;-63
2022/06/04 08:44:58;;;;;;;11.63;6.88;;;;;;;;;;5107085;28;20024;-69
2022/06/04 08:47:46;;;;;;;8.82;5.80;;;;;;;;;;5107029;28;20087;-55
2022/06/04 08:50:34;;;;;;;10.83;6.13;;;;;;;;;;5108852;28;20024;-58
2022/06/04 08:53:24;;;;;;;10.07;5.40;;;;;;;;;;5105979;28;20274;-56
2022/06/04 08:59:29;;;;;;;9.35;5.75;;;;;;;;;;5103081;28;20024;-53
2022/06/04 09:02:18;;;;;;;9.20;5.85;;;;;;;;;;5109781;28;20616;-55
2022/06/04 09:05:04;;;;;;;;;;;;;;;;;;5111040;28;20092;-71
2022/06/04 09:07:52;;;;;;;8.02;5.03;;;;;;;;;;5109106;28;19988;-71
2022/06/04 09:10:47;;;;;;;9.40;5.67;;;;;;;;;;5103428;27;20114;-71
2022/06/04 09:13:41;;;;;;;7.65;5.22;;;;;;;;;;5106595;28;20012;-71
2022/06/04 09:16:30;;;;;;;8.90;5.20;;;;;;;;;;5106432;27;20028;-69
2022/06/04 09:19:21;;;;;;;7.85;4.93;;;;;;;;;;5101179;28;20370;-70
2022/06/04 09:22:13;;;;;;;7.00;4.75;;;;;;;;;;5106307;28;20039;-60
2022/06/04 09:24:59;;;;;;;7.47;4.80;;;;;;;;;;5099107;28;20059;-70
2022/06/04 09:28:06;;;;;;;7.13;5.03;;;;;;;;;;5100298;28;20385;-70
2022/06/04 09:31:03;;;;;;;6.35;4.45;;;;;;;;;;5100440;28;20375;-68
2022/06/04 09:33:53;;;;;;;8.43;4.40;;;;;;;;;;5097326;28;20094;-69
2022/06/04 09:36:42;;;;;;;6.03;4.50;;;;;;;;;;5098094;28;20027;-69
2022/06/04 09:39:31;;;;;;;7.10;4.70;;;;;;;;;;5102919;27;20084;-61
2022/06/04 09:42:22;;;;;;;8.60;5.00;;;;;;;;;;5099624;27;20487;-59
2022/06/04 09:45:20;;;;;;;8.27;5.10;;;;;;;;;;5111393;27;20024;-60
2022/06/04 09:48:13;;;;;;;10.55;5.72;;;;;;;;;;5091290;28;20048;-61
2022/06/04 09:51:00;;;;;;;11.20;5.88;;;;;;;;;;5100557;28;20044;-61
2022/06/04 09:53:47;;;;;;;9.32;5.38;;;;;;;;;;5100379;28;20111;-63
2022/06/04 09:56:38;;;;;;;10.80;7.20;;;;;;;;;;5094054;28;20426;-69
2022/06/04 09:59:28;;;;;;;11.32;7.22;;;;;;;;;;5096189;28;20458;-58
2022/06/04 10:02:18;;;;;;;8.50;6.47;;;;;;;;;;5115760;27;20521;-59
2022/06/04 10:05:06;;;;;;;8.00;6.47;;;;;;;;;;5099107;27;20479;-63
2022/06/04 10:07:52;;;;;;;7.97;6.80;;;;;;;;;;5095537;28;20139;-63
2022/06/04 10:10:41;;;;;;;9.88;7.45;;;;;;;;;;5098098;28;20036;-62
2022/06/04 10:13:48;;;;;;;8.50;6.70;;;;;;;;;;5099176;28;20035;-66
2022/06/04 10:16:34;;;;;;;9.00;6.90;;;;;;;;;;5086420;28;20024;-65
2022/06/04 10:19:22;;;;;;;12.48;6.60;;;;;;;;;;5104126;28;20043;-72
2022/06/04 10:22:08;;;;;;;10.45;7.05;;;;;;;;;;5116347;27;20063;-72
2022/06/04 10:24:55;;;;;;;8.55;6.40;;;;;;;;;;5108002;28;20026;-71
2022/06/04 10:27:55;;;;;;;9.07;7.07;;;;;;;;;;5091545;28;20433;-70
2022/06/04 10:30:50;;;;;;;8.52;6.85;;;;;;;;;;5103043;28;20016;-71
2022/06/04 10:33:44;;;;;;;9.88;8.48;;;;;;;;;;5098961;28;20020;-71
2022/06/04 10:36:48;;;;;;;12.27;9.38;;;;;;;;;;5099234;28;20107;-71
2022/06/04 10:39:53;;;;;;;10.98;8.65;;;;;;;;;;5106063;28;20505;-72
2022/06/04 10:43:02;;;;;;;11.48;7.55;;;;;;;;;;5099811;28;20478;-70
2022/06/04 10:46:08;;;;;;;9.88;8.73;;;;;;;;;;5105312;28;20027;-71
2022/06/04 10:49:12;;;;;;;10.07;7.93;;;;;;;;;;5102016;28;20063;-71
2022/06/04 10:52:00;;;;;;;10.88;7.38;;;;;;;;;;5103275;28;20412;-62
2022/06/04 10:54:53;;;;;;;8.65;6.93;;;;;;;;;;5101566;28;20019;-71
2022/06/04 10:58:01;;;;;;;10.75;7.88;;;;;;;;;;5119011;27;20034;-69
2022/06/04 11:00:49;;;;;;;11.15;7.25;;;;;;;;;;5093616;28;20131;-74
2022/06/04 11:03:38;;;;;;;11.37;7.33;;;;;;;;;;5096058;28;20023;-72
2022/06/04 11:06:25;;;;;;;7.97;6.30;;;;;;;;;;5103474;27;20129;-71
2022/06/04 11:09:16;;;;;;;8.02;6.43;;;;;;;;;;5106128;28;20031;-71
2022/06/04 11:12:14;;;;;;;12.20;7.25;;;;;;;;;;5095318;28;20028;-70
2022/06/04 11:15:03;;;;;;;9.75;7.15;;;;;;;;;;5093814;28;20712;-72
2022/06/04 11:17:49;;;;;;;10.82;7.82;;;;;;;;;;5092894;28;20166;-71
2022/06/04 11:20:36;;;;;;;9.90;8.60;;;;;;;;;;5097450;28;20390;-71
2022/06/04 11:23:40;;;;;;;10.60;8.88;;;;;;;;;;5093384;28;20039;-71
2022/06/04 11:26:29;;;;;;;9.52;8.25;;;;;;;;;;5099466;28;20032;-72
2022/06/04 11:29:15;;;;;;;9.75;8.43;;;;;;;;;;5106244;28;20128;-74
2022/06/04 11:32:19;;;;;;;11.05;8.50;;;;;;;;;;5101997;28;20055;-63
2022/06/04 11:35:17;;;;;;;10.50;8.45;;;;;;;;;;5107733;28;20028;-63
2022/06/04 11:38:15;;;;;;;10.50;9.00;;;;;;;;;;5097453;28;20036;-64
2022/06/04 11:41:11;;;;;;;13.43;9.68;;;;;;;;;;5097299;28;20362;-63
2022/06/04 11:44:01;;;;;;;12.93;10.93;;;;;;;;;;5091462;28;20055;-63
2022/06/04 11:46:56;;;;;;;11.48;10.30;;;;;;;;;;5104496;28;20024;-63
2022/06/04 11:49:49;;;;;;;10.63;9.52;;;;;;;;;;5102821;28;20120;-71
2022/06/04 11:52:42;;;;;;;10.65;9.10;;;;;;;;;;5092676;28;20633;-63
2022/06/04 11:55:36;;;;;;;11.00;9.88;;;;;;;;;;5092072;28;20024;-63
2022/06/04 11:58:45;;;;;;;13.63;12.23;;;;;;;;;;5100803;28;20032;-61
2022/06/04 12:01:37;;;;;;;13.48;12.07;;;;;;;;;;5111283;27;20045;-64
2022/06/04 12:04:32;;;;;;;14.90;12.63;;;;;;;;;;5107262;28;20463;-61
2022/06/04 12:07:26;;;;;;;13.60;12.20;;;;;;;;;;5106735;28;20525;-69
2022/06/04 12:10:35;;;;;;;14.32;12.48;;;;;;;;;;5108501;28;20033;-72
2022/06/04 12:13:39;;;;;;;14.77;12.32;;;;;;;;;;5109766;28;20027;-72
2022/06/04 12:16:28;;;;;;;14.13;11.77;;;;;;;;;;5115436;28;20027;-74
2022/06/04 12:24:15;;;;;;;13.82;11.10;;;;;;;;;;5105528;28;20024;-75
2022/06/04 12:25:32;;;;;;;12.35;11.07;;;;;;;;;;5102170;28;20032;-68
2022/06/04 12:28:28;;;;;;;11.85;10.15;;;;;;;;;;5107064;28;20118;-63
2022/06/04 12:31:24;;;;;;;13.20;11.80;;;;;;;;;;5108484;28;20046;-64
2022/06/04 12:34:28;;;;;;;12.68;11.35;;;;;;;;;;5092988;28;20031;-65
2022/06/04 12:37:22;;;;;;;14.70;13.05;;;;;;;;;;5099562;28;20098;-62
2022/06/04 12:40:28;;;;;;;14.30;11.15;;;;;;;;;;5104785;28;20118;-64
2022/06/04 12:43:14;;;;;;;16.48;14.13;;;;;;;;;;5101811;28;20124;-71
2022/06/04 12:46:08;;;;;;;14.30;12.80;;;;;;;;;;5109394;28;20046;-64
2022/06/04 12:49:03;;;;;;;15.20;13.60;;;;;;;;;;5100447;28;20040;-64
2022/06/04 12:51:58;;;;;;;14.38;12.73;;;;;;;;;;5101172;27;20020;-63
2022/06/04 12:54:49;;;;;;;14.48;12.13;;;;;;;;;;5106930;28;20020;-64
2022/06/04 12:57:49;;;;;;;13.38;11.98;;;;;;;;;;5103459;28;20016;-63
2022/06/04 13:00:35;;;;;;;13.50;12.10;;;;;;;;;;5093822;28;20482;-64
2022/06/04 13:03:29;;;;;;;15.90;13.35;;;;;;;;;;5099378;28;20106;-63
2022/06/04 13:06:14;;;;;;;11.60;9.77;;;;;;;;;;5107595;28;20015;-64
2022/06/04 13:09:13;;;;;;;13.20;11.50;;;;;;;;;;5108216;28;20031;-64
2022/06/04 13:12:17;;;;;;;13.95;11.32;;;;;;;;;;5092784;28;20390;-63
2022/06/04 13:15:17;;;;;;;12.77;11.20;;;;;;;;;;5098879;28;20542;-64
2022/06/04 13:18:03;;;;;;;11.77;9.68;;;;;;;;;;5096411;28;20020;-62
2022/06/04 13:20:49;;;;;;;13.80;10.68;;;;;;;;;;5101073;28;20028;-63
2022/06/04 13:23:38;;;;;;;15.85;10.95;;;;;;;;;;5079362;28;20395;-71
2022/06/04 13:26:39;;;;;;;12.02;10.18;;;;;;;;;;5099228;28;20120;-71
2022/06/04 13:29:29;;;;;;;11.70;9.70;;;;;;;;;;5110379;28;20023;-71
2022/06/04 13:32:16;;;;;;;10.75;9.65;;;;;;;;;;5094986;28;20028;-71
2022/06/04 13:35:05;;;;;;;10.77;9.52;;;;;;;;;;5100703;28;20012;-70
2022/06/04 13:37:51;;;;;;;10.05;8.70;;;;;;;;;;5121004;27;20019;-73
2022/06/04 13:40:37;;;;;;;11.57;9.52;;;;;;;;;;5109799;28;20088;-63
2022/06/04 13:43:22;;;;;;;12.68;8.98;;;;;;;;;;5095024;28;20452;-62
2022/06/04 13:46:22;;;;;;;10.65;8.30;;;;;;;;;;5107436;27;20019;-64
2022/06/04 13:49:07;;;;;;;;;;;;;;;;;;5095651;28;20051;-63
2022/06/04 13:52:09;;;;;;;7.18;6.20;;;;;;;;;;5103322;28;19908;-62
2022/06/04 13:54:57;;;;;;;9.50;7.75;;;;;;;;;;5099420;27;20047;-63
2022/06/04 13:57:45;;;;;;;10.30;7.90;;;;;;;;;;5113728;27;20121;-74
2022/06/04 14:00:32;;;;;;;9.60;7.55;;;;;;;;;;5094998;27;20073;-74
2022/06/04 14:03:20;;;;;;;10.93;7.68;;;;;;;;;;5097836;28;20031;-70
2022/06/04 14:06:06;;;;;;;8.80;7.03;;;;;;;;;;5095080;28;20051;-71
2022/06/04 14:08:54;;;;;;;8.57;6.93;;;;;;;;;;5099331;28;20023;-72
2022/06/04 14:11:50;;;;;;;9.00;6.97;;;;;;;;;;5095036;28;20031;-72
2022/06/04 14:14:57;;;;;;;11.25;7.53;;;;;;;;;;5096840;28;20440;-63
2022/06/04 14:18:01;;;;;;;9.52;7.85;;;;;;;;;;5092998;27;20071;-64
2022/06/04 14:20:53;;;;;;;10.65;7.05;;;;;;;;;;5098905;28;20033;-65
2022/06/04 14:23:42;;;;;;;11.52;7.13;;;;;;;;;;5098181;28;20055;-65
2022/06/04 14:26:46;;;;;;;7.67;6.87;;;;;;;;;;5095439;27;20505;-65
2022/06/04 14:29:50;;;;;;;7.32;6.28;;;;;;;;;;5096570;27;20364;-64
2022/06/04 14:32:36;;;;;;;7.63;5.95;;;;;;;;;;5094789;28;20487;-71
2022/06/04 14:35:21;;;;;;;8.82;6.25;;;;;;;;;;5092408;28;20417;-65
2022/06/04 14:38:10;;;;;;;8.82;5.90;;;;;;;;;;5092787;28;20031;-70
2022/06/04 14:41:17;;;;;;;8.23;5.90;;;;;;;;;;5083702;28;20059;-69
2022/06/04 14:44:03;;;;;;;8.02;6.57;;;;;;;;;;5093532;28;20513;-68
2022/06/04 14:46:49;;;;;;;8.23;6.18;;;;;;;;;;5097029;27;20082;-69
2022/06/04 14:49:37;;;;;;;9.07;7.20;;;;;;;;;;5098601;28;20048;-71
2022/06/04 14:52:32;;;;;;;7.57;6.22;;;;;;;;;;5091743;28;20027;-66
2022/06/04 14:55:19;;;;;;;7.28;5.85;;;;;;;;;;5099000;27;20411;-71
2022/06/04 14:58:11;;;;;;;9.65;6.68;;;;;;;;;;5095494;28;20024;-71
2022/06/04 15:01:05;;;;;;;6.30;5.63;;;;;;;;;;5092342;28;20118;-71
2022/06/04 15:03:51;;;;;;;8.10;6.10;;;;;;;;;;5103883;27;20032;-70
2022/06/04 15:06:45;;;;;;;8.52;5.50;;;;;;;;;;5114531;27;20020;-69
2022/06/04 15:09:43;;;;;;;10.05;6.28;;;;;;;;;;5085170;28;20062;-71
2022/06/04 15:12:43;;;;;;;9.05;5.90;;;;;;;;;;5113447;28;20276;-66
2022/06/04 15:15:33;;;;;;;7.80;5.38;;;;;;;;;;5087507;27;20027;-66
2022/06/04 15:18:21;;;;;;;7.32;5.85;;;;;;;;;;5098258;28;20089;-65
2022/06/04 15:21:13;;;;;;;7.70;5.57;;;;;;;;;;5096960;28;20442;-65
2022/06/04 15:24:02;;;;;;;9.52;6.18;;;;;;;;;;5102190;28;20023;-66
2022/06/04 15:26:53;;;;;;;8.53;6.20;;;;;;;;;;5093213;28;20071;-66
2022/06/04 15:34:04;;;;;;;6.75;4.90;;;;;;;;;;5101278;28;20394;-63
2022/06/04 15:36:21;;;;;;;6.85;5.28;;;;;;;;;;5104424;27;20456;-64
2022/06/04 15:39:18;;;;;;;7.43;5.20;;;;;;;;;;5100416;28;20119;-63
2022/06/04 15:42:06;;;;;;;10.70;5.50;;;;;;;;;;5118499;27;20046;-63
2022/06/04 15:45:02;;;;;;;6.85;5.28;;;;;;;;;;5102721;28;20027;-63
2022/06/04 15:48:02;;;;;;;7.63;5.57;;;;;;;;;;5091904;28;20132;-70
2022/06/04 15:57:35;;;;;;;9.98;5.40;;;;;;;;;;5100512;28;20039;-75
2022/06/04 16:00:23;;;;;;;6.30;5.10;;;;;;;;;;5119455;27;20035;-76
2022/06/04 16:03:18;;;;;;;5.53;4.75;;;;;;;;;;5096627;28;20035;-74
2022/06/04 16:06:18;;;;;;;7.95;5.55;;;;;;;;;;5093782;28;20072;-70
2022/06/04 16:09:05;;;;;;;7.53;4.90;;;;;;;;;;5104670;28;20034;-64
2022/06/04 16:12:10;;;;;;;7.72;4.97;;;;;;;;;;5097438;28;20024;-62
2022/06/04 16:15:13;;;;;;;6.53;4.38;;;;;;;;;;5098784;28;20058;-63
2022/06/04 16:18:04;;;;;;;6.53;4.75;;;;;;;;;;5105971;28;20412;-63
2022/06/04 16:20:56;;;;;;;5.35;4.72;;;;;;;;;;5108656;28;20024;-63
2022/06/04 16:23:46;;;;;;;5.45;4.72;;;;;;;;;;5103665;28;20469;-63
2022/06/04 16:26:34;;;;;;;7.93;4.80;;;;;;;;;;5101639;28;20023;-71
2022/06/04 16:29:32;;;;;;;9.38;5.45;;;;;;;;;;5099407;28;20016;-72
2022/06/04 16:32:19;;;;;;;8.30;5.78;;;;;;;;;;5083522;28;20036;-72
2022/06/04 16:35:07;;;;;;;9.10;5.75;;;;;;;;;;5098184;28;20355;-71
2022/06/04 16:38:40;;;;;;;7.97;6.07;;;;;;;;;;5094643;28;20030;-72
2022/06/04 16:44:28;;;;;;;5.78;4.93;;;;;;;;;;5107630;28;20020;-73
2022/06/04 16:47:27;;;;;;;5.90;5.03;;;;;;;;;;5110756;28;20024;-71
2022/06/04 16:50:13;;;;;;;8.15;5.22;;;;;;;;;;5104369;28;20387;-70
2022/06/04 16:53:00;;;;;;;8.93;6.93;;;;;;;;;;5099731;28;20107;-71
2022/06/04 16:55:47;;;;;;;9.50;6.20;;;;;;;;;;5108768;28;20028;-71
2022/06/04 16:58:32;;;;;;;7.00;6.00;;;;;;;;;;5108416;28;20024;-71
2022/06/04 17:01:21;;;;;;;6.38;5.25;;;;;;;;;;5101410;28;20077;-63
2022/06/04 17:04:19;;;;;;;8.93;5.68;;;;;;;;;;5106120;27;20077;-76
2022/06/04 17:07:14;;;;;;;7.65;6.05;;;;;;;;;;5110353;28;20492;-75
2022/06/04 17:10:00;;;;;;;6.32;4.88;;;;;;;;;;5112523;27;20478;-76
2022/06/04 17:13:06;;;;;;;8.18;5.78;;;;;;;;;;5096502;28;20023;-76
2022/06/04 17:15:58;;;;;;;11.10;5.55;;;;;;;;;;5108556;27;20470;-76
2022/06/04 17:19:02;;;;;;;8.82;5.90;;;;;;;;;;5108792;28;20529;-72
2022/06/04 17:21:50;;;;;;;8.82;6.22;;;;;;;;;;5114871;28;20039;-63
2022/06/04 17:24:36;;;;;;;7.20;4.97;;;;;;;;;;5096380;28;20020;-62